createdAt,value
2022-08-19T00:02:18.680Z,100436.75
2022-08-19T00:05:22.620Z,100440.56
2022-08-19T00:08:25.322Z,100433.56
2022-08-19T00:11:28.522Z,100427.34
2022-08-19T00:14:34.140Z,100422.06
2022-08-19T00:17:36.367Z,100426.78
2022-08-19T00:20:44.075Z,100426.78
2022-08-19T00:23:46.397Z,100429.59
2022-08-19T00:26:48.401Z,100429.91
2022-08-19T00:29:54.005Z,100427.34
2022-08-19T00:32:56.117Z,100432.88
2022-08-19T00:35:58.435Z,100435.19
2022-08-19T00:39:01.141Z,100429.84
2022-08-19T00:42:03.694Z,100437.16
2022-08-19T00:45:15.143Z,100433.59
2022-08-19T00:48:18.327Z,100438.28
2022-08-19T00:51:20.662Z,100439.41
2022-08-19T00:54:28.248Z,100426.19
2022-08-19T00:57:40.170Z,100423.72
2022-08-19T01:00:42.510Z,100429.13
2022-08-19T01:03:57.615Z,100431.13
2022-08-19T01:07:01.017Z,100438.44
2022-08-19T01:10:06.847Z,100434.25
2022-08-19T01:13:14.282Z,100428.31
2022-08-19T01:16:18.410Z,100440.97
2022-08-19T01:19:29.034Z,100437.44
2022-08-19T01:22:40.628Z,100440.38
2022-08-19T01:25:50.152Z,100435.16
2022-08-19T01:28:57.397Z,100430.75
2022-08-19T01:32:02.239Z,100444.50
2022-08-19T01:35:05.561Z,100435.69
2022-08-19T01:38:11.620Z,100448.28
2022-08-19T01:41:14.792Z,100440.38
2022-08-19T01:44:19.255Z,100449.50
2022-08-19T01:47:21.530Z,100441.78
2022-08-19T01:50:23.885Z,100440.19
2022-08-19T01:53:26.721Z,100434.19
2022-08-19T01:56:36.065Z,100439.59
2022-08-19T01:59:38.496Z,100440.91
2022-08-19T02:02:40.771Z,100442.00
2022-08-19T02:05:46.732Z,100437.84
2022-08-19T02:08:50.102Z,100437.06
2022-08-19T02:11:54.362Z,100431.84
2022-08-19T02:14:56.750Z,100437.25
2022-08-19T02:17:59.301Z,100429.25
2022-08-19T02:21:01.566Z,100422.63
2022-08-19T02:24:04.231Z,100426.28
2022-08-19T02:27:06.963Z,100424.69
2022-08-19T02:30:13.914Z,100419.00
2022-08-19T02:33:17.093Z,100420.63
2022-08-19T02:36:20.652Z,100420.78
2022-08-19T02:39:23.651Z,100420.78
2022-08-19T02:42:25.781Z,100418.06
2022-08-19T02:45:28.183Z,100417.53
2022-08-19T02:48:30.293Z,100416.56
2022-08-19T02:51:39.531Z,100423.81
2022-08-19T02:54:41.592Z,100416.63
2022-08-19T02:57:43.976Z,100414.28
2022-08-19T03:00:51.758Z,100412.47
2022-08-19T03:03:54.625Z,100404.31
2022-08-19T03:07:00.704Z,100408.03
2022-08-19T03:10:05.995Z,100403.28
2022-08-19T03:13:08.945Z,100411.31
2022-08-19T03:16:12.590Z,100408.03
2022-08-19T03:19:17.181Z,100418.69
2022-08-19T03:22:19.421Z,100409.75
2022-08-19T03:25:22.924Z,100404.38
2022-08-19T03:28:25.320Z,100414.47
2022-08-19T03:31:43.423Z,100421.63
2022-08-19T03:34:48.862Z,100430.50
2022-08-19T03:37:51.852Z,100434.16
2022-08-19T03:40:54.105Z,100430.50
2022-08-19T03:43:56.247Z,100431.59
2022-08-19T03:47:00.274Z,100424.97
2022-08-19T03:50:03.119Z,100438.78
2022-08-19T03:53:05.327Z,100440.53
2022-08-19T03:56:10.566Z,100440.53
2022-08-19T03:59:17.181Z,100442.13
2022-08-19T04:02:19.345Z,100444.00
2022-08-19T04:05:21.610Z,100438.47
2022-08-19T04:08:29.720Z,100444.69
2022-08-19T04:11:43.271Z,100440.88
2022-08-19T04:14:46.716Z,100440.75
2022-08-19T04:17:48.952Z,100440.22
2022-08-19T04:20:50.983Z,100437.22
2022-08-19T04:23:54.421Z,100437.00
2022-08-19T04:26:57.977Z,100428.16
2022-08-19T04:30:00.209Z,100430.88
2022-08-19T04:33:02.275Z,100431.44
2022-08-19T04:36:04.649Z,100427.78
2022-08-19T04:39:10.049Z,100435.59
2022-08-19T04:42:31.562Z,100430.84
2022-08-19T04:45:39.561Z,100430.69
2022-08-19T04:48:49.418Z,100423.81
2022-08-19T04:51:55.102Z,100425.06
2022-08-19T04:54:57.272Z,100417.97
2022-08-19T04:57:59.361Z,100415.13
2022-08-19T05:01:02.516Z,100420.22
2022-08-19T05:04:06.452Z,100417.28
2022-08-19T05:07:10.815Z,100402.94
2022-08-19T05:10:13.737Z,100401.63
2022-08-19T05:13:18.033Z,100412.25
2022-08-19T05:16:21.688Z,100407.34
2022-08-19T05:19:42.800Z,100409.69
2022-08-19T05:22:46.244Z,100420.59
2022-08-19T05:25:48.607Z,100430.63
2022-08-19T05:28:54.505Z,100434.50
2022-08-19T05:31:57.241Z,100434.66
2022-08-19T05:34:59.323Z,100427.78
2022-08-19T05:38:01.648Z,100425.44
2022-08-19T05:41:11.621Z,100428.03
2022-08-19T05:44:15.077Z,100447.84
2022-08-19T05:47:17.746Z,100440.66
2022-08-19T05:50:20.218Z,100455.22
2022-08-19T05:53:22.322Z,100450.56
2022-08-19T05:56:25.085Z,100447.88
2022-08-19T05:59:27.146Z,100445.38
2022-08-19T06:02:31.823Z,100440.06
2022-08-19T06:05:34.179Z,100429.06
2022-08-19T06:08:52.073Z,100433.09
2022-08-19T06:11:59.236Z,100435.84
2022-08-19T06:15:08.332Z,100414.13
2022-08-19T06:18:14.540Z,100417.63
2022-08-19T06:21:16.823Z,100417.91
2022-08-19T06:24:23.948Z,100426.16
2022-08-19T06:27:26.265Z,100438.50
2022-08-19T06:30:28.551Z,100432.91
2022-08-19T06:33:31.034Z,100433.66
2022-08-19T06:36:36.997Z,100435.31
2022-08-19T06:39:41.453Z,100437.22
2022-08-19T06:42:45.221Z,100428.41
2022-08-19T06:45:57.713Z,100436.34
2022-08-19T06:49:01.403Z,100432.88
2022-08-19T06:52:05.411Z,100429.44
2022-08-19T06:55:07.892Z,100426.00
2022-08-19T06:58:10.397Z,100420.88
2022-08-19T07:01:12.540Z,100419.53
2022-08-19T07:04:17.560Z,100422.50
2022-08-19T07:07:22.122Z,100430.31
2022-08-19T07:10:24.861Z,100429.38
2022-08-19T07:13:27.970Z,100425.16
2022-08-19T07:16:30.666Z,100441.25
2022-08-19T07:19:33.908Z,100440.97
2022-08-19T07:22:36.644Z,100449.72
2022-08-19T07:25:39.318Z,100445.53
2022-08-19T07:28:51.299Z,100433.59
2022-08-19T07:32:00.094Z,100427.50
2022-08-19T07:35:04.426Z,100415.44
2022-08-19T07:38:06.453Z,100417.25
2022-08-19T07:41:12.195Z,100410.38
2022-08-19T07:44:15.590Z,100412.78
2022-08-19T07:47:48.905Z,100420.72
2022-08-19T07:50:41.089Z,100428.56
2022-08-19T07:53:45.755Z,100425.84
2022-08-19T07:56:47.898Z,100419.34
2022-08-19T07:59:50.149Z,100419.63
2022-08-19T08:02:55.691Z,100422.66
2022-08-19T08:06:17.312Z,100425.56
2022-08-19T08:09:25.489Z,100415.00
2022-08-19T08:12:34.949Z,100416.13
2022-08-19T08:15:42.711Z,100409.78
2022-08-19T08:18:50.579Z,100402.50
2022-08-19T08:21:57.219Z,100405.56
2022-08-19T08:25:04.174Z,100421.03
2022-08-19T08:28:11.320Z,100419.13
2022-08-19T08:31:13.848Z,100419.72
2022-08-19T08:34:16.113Z,100428.09
2022-08-19T08:37:18.544Z,100423.03
2022-08-19T08:40:45.428Z,100435.34
2022-08-19T08:43:52.158Z,100423.56
2022-08-19T08:46:58.072Z,100423.88
2022-08-19T08:50:07.807Z,100430.19
2022-08-19T08:53:12.231Z,100426.84
2022-08-19T08:56:16.999Z,100443.38
2022-08-19T08:59:35.799Z,100447.72
2022-08-19T09:02:39.030Z,100457.56
2022-08-19T09:06:06.164Z,100448.28
2022-08-19T09:09:33.518Z,100446.03
2022-08-19T09:12:43.086Z,100453.19
2022-08-19T09:15:51.364Z,100450.72
2022-08-19T09:18:56.024Z,100443.72
2022-08-19T09:22:01.334Z,100449.84
2022-08-19T09:25:05.850Z,100450.41
2022-08-19T09:28:12.649Z,100451.53
2022-08-19T09:31:28.980Z,100453.50
2022-08-19T09:34:31.633Z,100448.03
2022-08-19T09:37:41.077Z,100447.25
2022-08-19T09:40:43.418Z,100445.03
2022-08-19T09:43:47.952Z,100452.19
2022-08-19T09:46:51.837Z,100452.78
2022-08-19T09:49:53.887Z,100451.41
2022-08-19T09:52:57.530Z,100461.16
2022-08-19T09:55:59.987Z,100464.34
2022-08-19T09:59:04.098Z,100462.59
2022-08-19T10:02:10.850Z,100461.19
2022-08-19T10:05:31.955Z,100450.91
2022-08-19T10:08:37.423Z,100438.66
2022-08-19T10:11:54.598Z,100438.78
2022-08-19T10:14:57.330Z,100432.94
2022-08-19T10:18:00.751Z,100423.47
2022-08-19T10:21:11.492Z,100434.56
2022-08-19T10:24:14.051Z,100428.22
2022-08-19T10:27:16.191Z,100439.19
2022-08-19T10:30:20.141Z,100417.09
2022-08-19T10:33:38.717Z,100423.19
2022-08-19T10:36:56.052Z,100416.69
2022-08-19T10:39:58.894Z,100422.06
2022-08-19T10:43:01.250Z,100415.69
2022-08-19T10:46:03.359Z,100425.34
2022-08-19T10:49:06.855Z,100413.09
2022-08-19T10:52:32.515Z,100407.13
2022-08-19T10:55:54.240Z,100427.00
2022-08-19T10:58:57.736Z,100417.50
2022-08-19T11:02:01.877Z,100414.81
2022-08-19T11:05:05.174Z,100409.66
2022-08-19T11:08:23.370Z,100407.94
2022-08-19T11:11:26.243Z,100400.50
2022-08-19T11:14:32.111Z,100392.25
2022-08-19T11:17:37.190Z,100384.31
2022-08-19T11:20:39.857Z,100381.13
2022-08-19T11:23:42.492Z,100379.28
2022-08-19T11:26:45.734Z,100372.06
2022-08-19T11:29:48.546Z,100376.91
2022-08-19T11:32:50.909Z,100367.50
2022-08-19T11:35:54.545Z,100378.06
2022-08-19T11:38:57.221Z,100359.75
2022-08-19T11:42:00.182Z,100365.97
2022-08-19T11:45:04.119Z,100359.75
2022-08-19T11:48:06.197Z,100353.38
2022-08-19T11:51:12.483Z,100358.63
2022-08-19T11:54:17.169Z,100351.97
2022-08-19T11:57:20.759Z,100342.22
2022-08-19T12:00:23.582Z,100334.75
2022-08-19T12:03:26.362Z,100324.13
2022-08-19T12:06:31.090Z,100318.63
2022-08-19T12:09:35.482Z,100310.91
2022-08-19T12:12:41.437Z,100334.50
2022-08-19T12:15:44.022Z,100325.66
2022-08-19T12:18:47.435Z,100318.50
2022-08-19T12:21:50.641Z,100312.44
2022-08-19T12:24:54.744Z,100312.16
2022-08-19T12:27:57.924Z,100315.34
2022-08-19T12:31:00.608Z,100316.63
2022-08-19T12:34:09.368Z,100304.53
2022-08-19T12:37:12.010Z,100291.00
2022-08-19T12:40:16.499Z,100301.28
2022-08-19T12:43:21.330Z,100309.41
2022-08-19T12:46:26.076Z,100309.19
2022-08-19T12:49:52.386Z,100301.75
2022-08-19T12:52:59.110Z,100293.09
2022-08-19T12:56:01.777Z,100282.56
2022-08-19T12:59:05.790Z,100278.41
2022-08-19T13:02:09.090Z,100275.63
2022-08-19T13:05:15.265Z,100287.78
2022-08-19T13:08:18.179Z,100279.47
2022-08-19T13:11:25.304Z,100283.25
2022-08-19T13:14:27.601Z,100287.72
2022-08-19T13:17:30.116Z,100289.44
2022-08-19T13:20:33.634Z,100282.88
2022-08-19T13:23:36.879Z,100282.88
2022-08-19T13:26:39.335Z,100286.66
2022-08-19T13:30:01.359Z,100287.41
2022-08-19T13:33:12.831Z,100277.34
2022-08-19T13:36:18.438Z,100276.53
2022-08-19T13:39:21.568Z,100285.69
2022-08-19T13:42:26.744Z,100278.75
2022-08-19T13:45:32.190Z,100283.69
2022-08-19T13:48:35.238Z,100284.56
2022-08-19T13:51:40.798Z,100271.25
2022-08-19T13:54:45.126Z,100274.88
2022-08-19T13:57:47.467Z,100281.13
2022-08-19T14:00:50.956Z,100285.25
2022-08-19T14:03:53.979Z,100289.91
2022-08-19T14:06:56.666Z,100281.94
2022-08-19T14:09:59.016Z,100285.22
2022-08-19T14:13:03.667Z,100281.47
2022-08-19T14:16:11.583Z,100286.81
2022-08-19T14:19:14.441Z,100283.19
2022-08-19T14:22:22.042Z,100298.03
2022-08-19T14:25:27.611Z,100301.09
2022-08-19T14:28:31.181Z,100293.16
2022-08-19T14:31:33.693Z,100286.09
2022-08-19T14:34:38.291Z,100290.56
2022-08-19T14:37:45.797Z,100277.97
2022-08-19T14:40:49.965Z,100294.19
2022-08-19T14:43:54.183Z,100287.50
2022-08-19T14:46:56.497Z,100283.50
2022-08-19T14:50:00.314Z,100289.19
2022-08-19T14:53:12.662Z,100283.44
2022-08-19T14:56:17.565Z,100283.22
2022-08-19T14:59:19.778Z,100289.47
2022-08-19T15:02:34.448Z,100291.53
2022-08-19T15:05:37.629Z,100286.66
2022-08-19T15:08:45.940Z,100289.47
2022-08-19T15:11:49.944Z,100289.78
2022-08-19T15:14:53.656Z,100291.84
2022-08-19T15:18:03.310Z,100294.53
2022-08-19T15:21:06.572Z,100289.31
2022-08-19T15:24:10.386Z,100294.88
2022-08-19T15:27:13.871Z,100273.06
2022-08-19T15:30:22.241Z,100282.53
2022-08-19T15:33:25.024Z,100276.50
2022-08-19T15:36:28.396Z,100279.28
2022-08-19T15:39:31.555Z,100285.16
2022-08-19T15:42:34.276Z,100288.59
2022-08-19T15:45:36.707Z,100280.44
2022-08-19T15:48:39.063Z,100282.25
2022-08-19T15:51:43.677Z,100283.94
2022-08-19T15:54:45.891Z,100279.63
2022-08-19T15:58:06.861Z,100277.28
2022-08-19T16:01:28.495Z,100283.09
2022-08-19T16:04:49.751Z,100276.84
2022-08-19T16:07:52.096Z,100279.44
2022-08-19T16:10:55.184Z,100277.25
2022-08-19T16:13:59.167Z,100277.81
2022-08-19T16:17:02.166Z,100264.34
2022-08-19T16:20:07.271Z,100264.50
2022-08-19T16:23:10.271Z,100269.06
2022-08-19T16:26:13.460Z,100261.44
2022-08-19T16:29:33.465Z,100266.84
2022-08-19T16:32:37.183Z,100271.81
2022-08-19T16:35:39.622Z,100259.41
2022-08-19T16:38:41.826Z,100270.16
2022-08-19T16:41:46.020Z,100267.63
2022-08-19T16:44:48.226Z,100273.72
2022-08-19T16:47:50.850Z,100280.47
2022-08-19T16:50:53.403Z,100281.28
2022-08-19T16:53:56.102Z,100273.84
2022-08-19T16:56:59.790Z,100265.19
2022-08-19T17:00:09.722Z,100273.72
2022-08-19T17:03:15.114Z,100269.75
2022-08-19T17:06:21.093Z,100273.38
2022-08-19T17:09:26.003Z,100272.53
2022-08-19T17:12:31.919Z,100275.63
2022-08-19T17:15:34.961Z,100271.25
2022-08-19T17:18:37.487Z,100281.22
2022-08-19T17:21:40.773Z,100278.78
2022-08-19T17:24:43.144Z,100282.09
2022-08-19T17:27:45.514Z,100280.38
2022-08-19T17:30:48.285Z,100276.19
2022-08-19T17:33:51.360Z,100293.34
2022-08-19T17:36:56.767Z,100298.25
2022-08-19T17:39:59.028Z,100310.59
2022-08-19T17:43:02.796Z,100321.59
2022-08-19T17:46:05.721Z,100328.19
2022-08-19T17:49:08.123Z,100331.03
2022-08-19T17:52:11.163Z,100329.41
2022-08-19T17:55:13.967Z,100326.69
2022-08-19T17:58:16.665Z,100339.38
2022-08-19T18:01:22.024Z,100345.38
2022-08-19T18:04:27.200Z,100346.84
2022-08-19T18:07:30.466Z,100359.53
2022-08-19T18:10:34.994Z,100356.00
2022-08-19T18:13:38.342Z,100363.34
2022-08-19T18:16:40.501Z,100364.72
2022-08-19T18:19:44.460Z,100364.97
2022-08-19T18:22:48.711Z,100374.00
2022-08-19T18:25:51.102Z,100366.78
2022-08-19T18:28:54.159Z,100370.78
2022-08-19T18:31:57.849Z,100358.13
2022-08-19T18:35:02.062Z,100367.38
2022-08-19T18:38:27.455Z,100359.03
2022-08-19T18:41:48.429Z,100313.69
2022-08-19T18:45:09.688Z,100366.41
2022-08-19T18:48:30.281Z,100365.44
2022-08-19T18:51:33.290Z,100353.84
2022-08-19T18:54:36.893Z,100342.94
2022-08-19T18:57:39.230Z,100346.53
2022-08-19T19:00:41.962Z,100338.56
2022-08-19T19:03:48.080Z,100328.88
2022-08-19T19:06:50.398Z,100342.91
2022-08-19T19:09:52.734Z,100348.75
2022-08-19T19:12:54.958Z,100342.56
2022-08-19T19:15:57.500Z,100337.19
2022-08-19T19:18:59.947Z,100341.16
2022-08-19T19:22:03.607Z,100346.88
2022-08-19T19:25:06.617Z,100355.41
2022-08-19T19:28:09.973Z,100362.72
2022-08-19T19:31:22.692Z,100352.25
2022-08-19T19:34:29.483Z,100353.75
2022-08-19T19:37:32.997Z,100357.03
2022-08-19T19:40:35.406Z,100354.53
2022-08-19T19:43:40.882Z,100368.81
2022-08-19T19:46:43.983Z,100368.19
2022-08-19T19:50:12.770Z,100351.19
2022-08-19T19:53:10.201Z,100356.03
2022-08-19T19:56:13.259Z,100368.06
2022-08-19T19:59:18.673Z,100366.03
2022-08-19T20:02:22.129Z,100361.34
2022-08-19T20:05:25.746Z,100369.22
2022-08-19T20:08:46.949Z,100350.28
2022-08-19T20:11:56.064Z,100370.28
2022-08-19T20:15:02.133Z,100348.19
2022-08-19T20:18:05.934Z,100362.56
2022-08-19T20:21:12.467Z,100375.31
2022-08-19T20:24:20.937Z,100386.25
2022-08-19T20:27:27.565Z,100389.19
2022-08-19T20:30:56.992Z,100397.91
2022-08-19T20:34:25.729Z,100409.81
2022-08-19T20:37:36.748Z,100407.06
2022-08-19T20:41:06.330Z,100403.59
2022-08-19T20:44:13.647Z,100410.47
2022-08-19T20:47:16.103Z,100404.69
2022-08-19T20:50:18.899Z,100397.19
2022-08-19T20:53:27.235Z,100403.19
2022-08-19T20:56:29.757Z,100392.38
2022-08-19T20:59:37.213Z,100398.84
2022-08-19T21:02:42.467Z,100404.06
2022-08-19T21:05:47.946Z,100400.88
2022-08-19T21:08:51.079Z,100399.56
2022-08-19T21:11:54.555Z,100390.28
2022-08-19T21:14:56.892Z,100390.28
2022-08-19T21:18:01.893Z,100397.03
2022-08-19T21:21:04.577Z,100396.03
2022-08-19T21:24:06.942Z,100410.78
2022-08-19T21:27:09.343Z,100395.28
2022-08-19T21:30:12.324Z,100397.72
2022-08-19T21:33:15.207Z,100391.59
2022-08-19T21:36:18.545Z,100393.38
2022-08-19T21:39:20.973Z,100388.19
2022-08-19T21:42:24.081Z,100381.56
2022-08-19T21:45:36.239Z,100377.44
2022-08-19T21:48:38.391Z,100380.81
2022-08-19T21:51:40.914Z,100378.19
2022-08-19T21:54:43.061Z,100387.09
2022-08-19T21:57:45.533Z,100386.78
2022-08-19T22:00:47.769Z,100389.84
2022-08-19T22:03:50.335Z,100388.84
2022-08-19T22:06:52.525Z,100379.38
2022-08-19T22:09:55.040Z,100379.59
2022-08-19T22:12:57.988Z,100379.16
2022-08-19T22:16:00.457Z,100385.47
2022-08-19T22:19:02.748Z,100381.66
2022-08-19T22:22:05.159Z,100379.78
2022-08-19T22:25:13.498Z,100387.53
2022-08-19T22:29:01.248Z,100398.84
2022-08-19T22:32:26.231Z,100416.34
2022-08-19T22:35:31.357Z,100423.38
2022-08-19T22:38:34.527Z,100430.00
2022-08-19T22:41:37.643Z,100448.78
2022-08-19T22:44:39.769Z,100472.19
2022-08-19T22:47:43.198Z,100486.13
2022-08-19T22:51:06.827Z,100475.34
2022-08-19T22:54:09.483Z,100479.59
2022-08-19T22:57:11.719Z,100491.03
2022-08-19T23:00:14.961Z,100506.28
2022-08-19T23:03:17.138Z,100510.47
2022-08-19T23:06:19.589Z,100505.22
2022-08-19T23:09:23.324Z,100484.69
2022-08-19T23:12:31.473Z,100473.47
2022-08-19T23:15:35.159Z,100464.44
2022-08-19T23:18:37.502Z,100462.91
2022-08-19T23:21:41.903Z,100460.19
2022-08-19T23:24:44.377Z,100479.69
2022-08-19T23:28:05.227Z,100494.94
2022-08-19T23:31:08.374Z,100486.88
2022-08-19T23:34:11.254Z,100471.06
2022-08-19T23:37:13.819Z,100478.25
2022-08-19T23:40:17.270Z,100489.69
2022-08-19T23:43:25.039Z,100488.47
2022-08-19T23:46:28.482Z,100476.13
2022-08-19T23:49:31.421Z,100489.38
2022-08-19T23:52:35.147Z,100496.66
2022-08-19T23:55:40.415Z,100482.28
2022-08-19T23:58:42.531Z,100485.69
